sensor_id;sensor_type;location;lat;lon;timestamp;P1;durP1;ratioP1;P2;durP2;ratioP2
12511;SDS011;6321;53.798;10.382;2022-11-15T00:00:53;34.03;;;18.37;;
12511;SDS011;6321;53.798;10.382;2022-11-15T00:03:20;36.83;;;18.17;;
12511;SDS011;6321;53.798;10.382;2022-11-15T00:05:46;30.77;;;18.23;;
12511;SDS011;6321;53.798;10.382;2022-11-15T00:08:12;41.33;;;20.90;;
12511;SDS011;6321;53.798;10.382;2022-11-15T00:10:38;35.67;;;19.90;;
12511;SDS011;6321;53.798;10.382;2022-11-15T00:13:08;37.87;;;21.03;;
12511;SDS011;6321;53.798;10.382;2022-11-15T00:15:35;37.33;;;21.10;;
12511;SDS011;6321;53.798;10.382;2022-11-15T00:18:01;38.77;;;20.60;;
12511;SDS011;6321;53.798;10.382;2022-11-15T00:20:27;37.40;;;19.53;;
12511;SDS011;6321;53.798;10.382;2022-11-15T00:22:54;40.07;;;20.07;;
12511;SDS011;6321;53.798;10.382;2022-11-15T00:25:20;37.47;;;20.40;;
12511;SDS011;6321;53.798;10.382;2022-11-15T00:27:46;36.70;;;19.30;;
12511;SDS011;6321;53.798;10.382;2022-11-15T00:30:12;39.10;;;20.80;;
12511;SDS011;6321;53.798;10.382;2022-11-15T00:32:38;35.17;;;19.77;;
12511;SDS011;6321;53.798;10.382;2022-11-15T00:35:04;41.23;;;22.27;;
12511;SDS011;6321;53.798;10.382;2022-11-15T00:37:30;40.00;;;20.60;;
12511;SDS011;6321;53.798;10.382;2022-11-15T00:39:56;41.90;;;20.60;;
12511;SDS011;6321;53.798;10.382;2022-11-15T00:42:22;38.07;;;20.30;;
12511;SDS011;6321;53.798;10.382;2022-11-15T00:44:48;42.40;;;20.93;;
12511;SDS011;6321;53.798;10.382;2022-11-15T00:47:14;37.37;;;19.93;;
12511;SDS011;6321;53.798;10.382;2022-11-15T00:49:39;42.80;;;20.60;;
12511;SDS011;6321;53.798;10.382;2022-11-15T00:52:06;39.30;;;20.50;;
12511;SDS011;6321;53.798;10.382;2022-11-15T00:54:32;36.50;;;20.03;;
12511;SDS011;6321;53.798;10.382;2022-11-15T00:56:58;42.17;;;21.57;;
12511;SDS011;6321;53.798;10.382;2022-11-15T00:59:24;42.00;;;20.77;;
12511;SDS011;6321;53.798;10.382;2022-11-15T01:01:50;39.67;;;22.17;;
12511;SDS011;6321;53.798;10.382;2022-11-15T01:04:16;37.70;;;20.80;;
12511;SDS011;6321;53.798;10.382;2022-11-15T01:06:42;40.37;;;21.50;;
12511;SDS011;6321;53.798;10.382;2022-11-15T01:09:08;36.43;;;20.63;;
12511;SDS011;6321;53.798;10.382;2022-11-15T01:11:34;40.60;;;20.90;;
12511;SDS011;6321;53.798;10.382;2022-11-15T01:14:00;41.10;;;21.13;;
12511;SDS011;6321;53.798;10.382;2022-11-15T01:16:25;45.30;;;21.33;;
12511;SDS011;6321;53.798;10.382;2022-11-15T01:18:51;41.93;;;21.60;;
12511;SDS011;6321;53.798;10.382;2022-11-15T01:21:18;38.30;;;19.90;;
12511;SDS011;6321;53.798;10.382;2022-11-15T01:23:44;44.00;;;22.33;;
12511;SDS011;6321;53.798;10.382;2022-11-15T01:26:11;41.30;;;19.90;;
12511;SDS011;6321;53.798;10.382;2022-11-15T01:28:38;38.80;;;19.27;;
12511;SDS011;6321;53.798;10.382;2022-11-15T01:31:05;37.20;;;20.50;;
12511;SDS011;6321;53.798;10.382;2022-11-15T01:33:34;43.67;;;22.03;;
12511;SDS011;6321;53.798;10.382;2022-11-15T01:36:04;42.83;;;21.63;;
12511;SDS011;6321;53.798;10.382;2022-11-15T01:38:30;40.10;;;20.47;;
12511;SDS011;6321;53.798;10.382;2022-11-15T01:40:56;44.07;;;20.13;;
12511;SDS011;6321;53.798;10.382;2022-11-15T01:43:26;37.90;;;20.33;;
12511;SDS011;6321;53.798;10.382;2022-11-15T01:46:35;37.33;;;19.73;;
12511;SDS011;6321;53.798;10.382;2022-11-15T01:48:42;37.30;;;19.53;;
12511;SDS011;6321;53.798;10.382;2022-11-15T01:51:09;37.47;;;20.50;;
12511;SDS011;6321;53.798;10.382;2022-11-15T01:53:37;38.40;;;19.53;;
12511;SDS011;6321;53.798;10.382;2022-11-15T01:56:04;34.60;;;18.90;;
12511;SDS011;6321;53.798;10.382;2022-11-15T01:58:31;39.73;;;20.20;;
12511;SDS011;6321;53.798;10.382;2022-11-15T02:00:58;35.40;;;18.50;;
12511;SDS011;6321;53.798;10.382;2022-11-15T02:03:25;38.00;;;19.50;;
12511;SDS011;6321;53.798;10.382;2022-11-15T02:05:52;40.27;;;19.50;;
12511;SDS011;6321;53.798;10.382;2022-11-15T02:08:18;29.17;;;19.00;;
12511;SDS011;6321;53.798;10.382;2022-11-15T02:10:47;36.60;;;20.57;;
12511;SDS011;6321;53.798;10.382;2022-11-15T02:13:14;37.97;;;20.40;;
12511;SDS011;6321;53.798;10.382;2022-11-15T02:15:43;34.30;;;19.23;;
12511;SDS011;6321;53.798;10.382;2022-11-15T02:18:17;38.87;;;20.77;;
12511;SDS011;6321;53.798;10.382;2022-11-15T02:26:25;31.57;;;17.77;;
12511;SDS011;6321;53.798;10.382;2022-11-15T02:36:41;38.40;;;20.40;;
12511;SDS011;6321;53.798;10.382;2022-11-15T02:39:19;40.90;;;19.13;;
12511;SDS011;6321;53.798;10.382;2022-11-15T02:41:48;34.93;;;18.13;;
12511;SDS011;6321;53.798;10.382;2022-11-15T02:46:45;38.40;;;20.33;;
12511;SDS011;6321;53.798;10.382;2022-11-15T02:49:34;36.83;;;19.07;;
12511;SDS011;6321;53.798;10.382;2022-11-15T02:52:00;38.97;;;17.33;;
12511;SDS011;6321;53.798;10.382;2022-11-15T02:54:30;36.83;;;18.03;;
12511;SDS011;6321;53.798;10.382;2022-11-15T02:57:01;39.90;;;19.50;;
12511;SDS011;6321;53.798;10.382;2022-11-15T03:02:21;39.70;;;21.00;;
12511;SDS011;6321;53.798;10.382;2022-11-15T03:04:55;38.73;;;19.70;;
12511;SDS011;6321;53.798;10.382;2022-11-15T03:12:41;43.10;;;21.40;;
12511;SDS011;6321;53.798;10.382;2022-11-15T03:15:22;46.27;;;23.73;;
12511;SDS011;6321;53.798;10.382;2022-11-15T03:17:55;42.77;;;21.43;;
12511;SDS011;6321;53.798;10.382;2022-11-15T03:20:21;43.13;;;21.63;;
12511;SDS011;6321;53.798;10.382;2022-11-15T03:22:49;40.00;;;19.97;;
12511;SDS011;6321;53.798;10.382;2022-11-15T03:25:18;39.17;;;20.27;;
12511;SDS011;6321;53.798;10.382;2022-11-15T03:27:46;35.17;;;18.93;;
12511;SDS011;6321;53.798;10.382;2022-11-15T03:30:13;37.17;;;20.27;;
12511;SDS011;6321;53.798;10.382;2022-11-15T03:32:57;38.60;;;19.17;;
12511;SDS011;6321;53.798;10.382;2022-11-15T03:35:25;35.93;;;17.57;;
12511;SDS011;6321;53.798;10.382;2022-11-15T03:37:57;30.13;;;17.17;;
12511;SDS011;6321;53.798;10.382;2022-11-15T03:40:34;32.23;;;17.20;;
12511;SDS011;6321;53.798;10.382;2022-11-15T03:43:04;31.67;;;17.23;;
12511;SDS011;6321;53.798;10.382;2022-11-15T03:45:36;27.97;;;16.53;;
12511;SDS011;6321;53.798;10.382;2022-11-15T03:48:07;31.80;;;17.13;;
12511;SDS011;6321;53.798;10.382;2022-11-15T03:50:35;33.63;;;17.73;;
12511;SDS011;6321;53.798;10.382;2022-11-15T03:53:01;33.80;;;17.17;;
12511;SDS011;6321;53.798;10.382;2022-11-15T03:55:27;33.40;;;18.63;;
12511;SDS011;6321;53.798;10.382;2022-11-15T03:57:54;37.37;;;18.07;;
12511;SDS011;6321;53.798;10.382;2022-11-15T04:00:21;31.13;;;16.23;;
12511;SDS011;6321;53.798;10.382;2022-11-15T04:02:47;36.27;;;18.47;;
12511;SDS011;6321;53.798;10.382;2022-11-15T04:05:13;39.83;;;19.17;;
12511;SDS011;6321;53.798;10.382;2022-11-15T04:07:39;44.70;;;20.80;;
12511;SDS011;6321;53.798;10.382;2022-11-15T04:10:05;41.30;;;18.97;;
12511;SDS011;6321;53.798;10.382;2022-11-15T04:12:38;41.17;;;20.90;;
12511;SDS011;6321;53.798;10.382;2022-11-15T04:15:08;38.10;;;19.97;;
12511;SDS011;6321;53.798;10.382;2022-11-15T04:20:08;36.83;;;17.27;;
12511;SDS011;6321;53.798;10.382;2022-11-15T04:22:54;35.97;;;17.40;;
12511;SDS011;6321;53.798;10.382;2022-11-15T04:25:39;35.60;;;17.03;;
12511;SDS011;6321;53.798;10.382;2022-11-15T04:28:05;33.63;;;18.17;;
12511;SDS011;6321;53.798;10.382;2022-11-15T04:30:31;33.40;;;17.60;;
12511;SDS011;6321;53.798;10.382;2022-11-15T04:32:57;35.90;;;17.80;;
12511;SDS011;6321;53.798;10.382;2022-11-15T04:35:23;36.63;;;18.77;;
12511;SDS011;6321;53.798;10.382;2022-11-15T04:37:48;34.23;;;17.60;;
12511;SDS011;6321;53.798;10.382;2022-11-15T04:40:14;32.77;;;17.97;;
12511;SDS011;6321;53.798;10.382;2022-11-15T04:42:41;28.80;;;16.17;;
12511;SDS011;6321;53.798;10.382;2022-11-15T04:45:07;33.27;;;17.50;;
12511;SDS011;6321;53.798;10.382;2022-11-15T04:47:33;37.40;;;17.90;;
12511;SDS011;6321;53.798;10.382;2022-11-15T04:49:59;39.53;;;17.97;;
12511;SDS011;6321;53.798;10.382;2022-11-15T04:52:25;32.20;;;16.73;;
12511;SDS011;6321;53.798;10.382;2022-11-15T04:54:51;31.53;;;15.97;;
12511;SDS011;6321;53.798;10.382;2022-11-15T04:57:17;27.77;;;16.60;;
12511;SDS011;6321;53.798;10.382;2022-11-15T04:59:43;33.20;;;17.03;;
12511;SDS011;6321;53.798;10.382;2022-11-15T05:02:09;36.50;;;18.27;;
12511;SDS011;6321;53.798;10.382;2022-11-15T05:04:35;32.47;;;16.73;;
12511;SDS011;6321;53.798;10.382;2022-11-15T05:07:01;33.37;;;17.87;;
12511;SDS011;6321;53.798;10.382;2022-11-15T05:09:29;31.93;;;17.33;;
12511;SDS011;6321;53.798;10.382;2022-11-15T05:11:55;29.90;;;15.80;;
12511;SDS011;6321;53.798;10.382;2022-11-15T05:14:20;34.13;;;17.37;;
12511;SDS011;6321;53.798;10.382;2022-11-15T05:16:46;28.87;;;16.50;;
12511;SDS011;6321;53.798;10.382;2022-11-15T05:19:12;31.87;;;16.27;;
12511;SDS011;6321;53.798;10.382;2022-11-15T05:21:38;28.83;;;15.93;;
12511;SDS011;6321;53.798;10.382;2022-11-15T05:24:04;33.40;;;16.60;;
12511;SDS011;6321;53.798;10.382;2022-11-15T05:26:30;32.50;;;18.23;;
12511;SDS011;6321;53.798;10.382;2022-11-15T05:28:57;33.50;;;17.00;;
12511;SDS011;6321;53.798;10.382;2022-11-15T05:31:23;32.40;;;16.83;;
12511;SDS011;6321;53.798;10.382;2022-11-15T05:33:50;32.10;;;16.67;;
12511;SDS011;6321;53.798;10.382;2022-11-15T05:36:38;35.93;;;17.97;;
12511;SDS011;6321;53.798;10.382;2022-11-15T05:39:06;31.90;;;16.83;;
12511;SDS011;6321;53.798;10.382;2022-11-15T05:41:37;30.73;;;16.53;;
12511;SDS011;6321;53.798;10.382;2022-11-15T05:44:05;29.17;;;16.07;;
12511;SDS011;6321;53.798;10.382;2022-11-15T05:46:32;29.67;;;17.53;;
12511;SDS011;6321;53.798;10.382;2022-11-15T05:48:58;30.57;;;17.47;;
12511;SDS011;6321;53.798;10.382;2022-11-15T05:51:24;30.97;;;16.93;;
12511;SDS011;6321;53.798;10.382;2022-11-15T05:53:52;33.27;;;17.53;;
12511;SDS011;6321;53.798;10.382;2022-11-15T05:56:20;35.80;;;17.53;;
12511;SDS011;6321;53.798;10.382;2022-11-15T05:58:46;34.93;;;16.90;;
12511;SDS011;6321;53.798;10.382;2022-11-15T06:01:12;28.67;;;17.13;;
12511;SDS011;6321;53.798;10.382;2022-11-15T06:03:38;31.03;;;16.33;;
12511;SDS011;6321;53.798;10.382;2022-11-15T06:06:04;32.17;;;17.33;;
12511;SDS011;6321;53.798;10.382;2022-11-15T06:08:30;29.53;;;16.40;;
12511;SDS011;6321;53.798;10.382;2022-11-15T06:11:02;31.90;;;16.97;;
12511;SDS011;6321;53.798;10.382;2022-11-15T06:13:28;45.58;;;25.73;;
12511;SDS011;6321;53.798;10.382;2022-11-15T06:15:55;40.10;;;20.50;;
12511;SDS011;6321;53.798;10.382;2022-11-15T06:18:21;31.93;;;18.37;;
12511;SDS011;6321;53.798;10.382;2022-11-15T06:20:47;36.60;;;18.43;;
12511;SDS011;6321;53.798;10.382;2022-11-15T06:23:13;34.33;;;17.63;;
12511;SDS011;6321;53.798;10.382;2022-11-15T06:25:39;34.20;;;16.80;;
12511;SDS011;6321;53.798;10.382;2022-11-15T06:28:05;35.17;;;18.50;;
12511;SDS011;6321;53.798;10.382;2022-11-15T06:30:31;31.33;;;16.93;;
12511;SDS011;6321;53.798;10.382;2022-11-15T06:33:03;32.60;;;16.40;;
12511;SDS011;6321;53.798;10.382;2022-11-15T06:35:30;32.07;;;17.57;;
12511;SDS011;6321;53.798;10.382;2022-11-15T06:38:08;34.43;;;18.27;;
12511;SDS011;6321;53.798;10.382;2022-11-15T06:40:35;40.17;;;18.17;;
12511;SDS011;6321;53.798;10.382;2022-11-15T06:43:02;33.00;;;16.70;;
12511;SDS011;6321;53.798;10.382;2022-11-15T06:45:28;33.10;;;17.80;;
12511;SDS011;6321;53.798;10.382;2022-11-15T06:47:54;31.07;;;16.93;;
12511;SDS011;6321;53.798;10.382;2022-11-15T06:50:20;33.63;;;18.50;;
12511;SDS011;6321;53.798;10.382;2022-11-15T06:52:45;37.57;;;17.03;;
12511;SDS011;6321;53.798;10.382;2022-11-15T06:55:11;33.83;;;17.60;;
12511;SDS011;6321;53.798;10.382;2022-11-15T06:57:45;31.40;;;16.50;;
12511;SDS011;6321;53.798;10.382;2022-11-15T07:00:12;33.33;;;17.87;;
12511;SDS011;6321;53.798;10.382;2022-11-15T07:02:38;31.03;;;16.37;;
12511;SDS011;6321;53.798;10.382;2022-11-15T07:05:04;32.57;;;16.90;;
12511;SDS011;6321;53.798;10.382;2022-11-15T07:07:30;37.43;;;17.87;;
12511;SDS011;6321;53.798;10.382;2022-11-15T07:09:55;33.17;;;17.83;;
12511;SDS011;6321;53.798;10.382;2022-11-15T07:12:21;33.73;;;17.53;;
12511;SDS011;6321;53.798;10.382;2022-11-15T07:14:47;35.57;;;17.97;;
12511;SDS011;6321;53.798;10.382;2022-11-15T07:17:13;32.27;;;17.70;;
12511;SDS011;6321;53.798;10.382;2022-11-15T07:19:39;30.93;;;16.23;;
12511;SDS011;6321;53.798;10.382;2022-11-15T07:22:05;33.03;;;16.60;;
12511;SDS011;6321;53.798;10.382;2022-11-15T07:24:31;35.20;;;17.70;;
12511;SDS011;6321;53.798;10.382;2022-11-15T07:26:57;39.77;;;18.40;;
12511;SDS011;6321;53.798;10.382;2022-11-15T07:29:23;29.77;;;17.10;;
12511;SDS011;6321;53.798;10.382;2022-11-15T07:31:49;29.17;;;17.13;;
12511;SDS011;6321;53.798;10.382;2022-11-15T07:34:15;28.03;;;16.40;;
12511;SDS011;6321;53.798;10.382;2022-11-15T07:36:41;37.43;;;18.33;;
12511;SDS011;6321;53.798;10.382;2022-11-15T07:39:07;34.40;;;18.00;;
12511;SDS011;6321;53.798;10.382;2022-11-15T07:41:34;31.23;;;17.30;;
12511;SDS011;6321;53.798;10.382;2022-11-15T07:44:00;32.43;;;16.33;;
12511;SDS011;6321;53.798;10.382;2022-11-15T07:46:26;32.77;;;17.50;;
12511;SDS011;6321;53.798;10.382;2022-11-15T07:48:52;28.30;;;17.00;;
12511;SDS011;6321;53.798;10.382;2022-11-15T07:51:18;31.33;;;17.20;;
12511;SDS011;6321;53.798;10.382;2022-11-15T07:53:44;31.57;;;17.43;;
12511;SDS011;6321;53.798;10.382;2022-11-15T07:56:10;34.00;;;16.67;;
12511;SDS011;6321;53.798;10.382;2022-11-15T07:58:36;31.17;;;18.07;;
12511;SDS011;6321;53.798;10.382;2022-11-15T08:01:03;29.63;;;16.30;;
12511;SDS011;6321;53.798;10.382;2022-11-15T08:03:29;31.70;;;16.93;;
12511;SDS011;6321;53.798;10.382;2022-11-15T08:05:55;29.10;;;17.03;;
12511;SDS011;6321;53.798;10.382;2022-11-15T08:08:20;28.57;;;17.13;;
12511;SDS011;6321;53.798;10.382;2022-11-15T08:10:46;34.17;;;17.80;;
12511;SDS011;6321;53.798;10.382;2022-11-15T08:13:12;31.77;;;17.90;;
12511;SDS011;6321;53.798;10.382;2022-11-15T08:15:38;32.60;;;17.47;;
12511;SDS011;6321;53.798;10.382;2022-11-15T08:18:14;31.80;;;17.13;;
12511;SDS011;6321;53.798;10.382;2022-11-15T08:20:41;32.40;;;17.53;;
12511;SDS011;6321;53.798;10.382;2022-11-15T08:23:08;30.47;;;16.83;;
12511;SDS011;6321;53.798;10.382;2022-11-15T08:25:35;28.87;;;16.03;;
12511;SDS011;6321;53.798;10.382;2022-11-15T08:28:03;31.67;;;16.37;;
12511;SDS011;6321;53.798;10.382;2022-11-15T08:30:29;32.23;;;17.23;;
12511;SDS011;6321;53.798;10.382;2022-11-15T08:32:56;32.60;;;16.97;;
12511;SDS011;6321;53.798;10.382;2022-11-15T08:35:22;33.53;;;17.93;;
12511;SDS011;6321;53.798;10.382;2022-11-15T08:37:49;30.37;;;17.27;;
12511;SDS011;6321;53.798;10.382;2022-11-15T08:40:15;28.00;;;17.57;;
12511;SDS011;6321;53.798;10.382;2022-11-15T08:42:41;33.07;;;16.87;;
12511;SDS011;6321;53.798;10.382;2022-11-15T08:45:07;29.43;;;15.93;;
12511;SDS011;6321;53.798;10.382;2022-11-15T08:47:34;28.57;;;15.30;;
12511;SDS011;6321;53.798;10.382;2022-11-15T08:50:00;31.57;;;16.67;;
12511;SDS011;6321;53.798;10.382;2022-11-15T08:52:26;29.70;;;16.83;;
12511;SDS011;6321;53.798;10.382;2022-11-15T08:54:52;31.37;;;17.53;;
12511;SDS011;6321;53.798;10.382;2022-11-15T08:57:17;33.80;;;17.47;;
12511;SDS011;6321;53.798;10.382;2022-11-15T08:59:43;29.57;;;17.07;;
12511;SDS011;6321;53.798;10.382;2022-11-15T09:02:11;29.33;;;15.63;;
12511;SDS011;6321;53.798;10.382;2022-11-15T09:04:39;31.30;;;16.93;;
12511;SDS011;6321;53.798;10.382;2022-11-15T09:07:04;28.43;;;15.93;;
12511;SDS011;6321;53.798;10.382;2022-11-15T09:09:30;30.83;;;16.77;;
12511;SDS011;6321;53.798;10.382;2022-11-15T09:11:56;30.23;;;16.40;;
12511;SDS011;6321;53.798;10.382;2022-11-15T09:14:22;28.17;;;16.60;;
12511;SDS011;6321;53.798;10.382;2022-11-15T09:16:48;26.97;;;16.70;;
12511;SDS011;6321;53.798;10.382;2022-11-15T09:19:14;27.43;;;15.77;;
12511;SDS011;6321;53.798;10.382;2022-11-15T09:21:40;26.90;;;16.43;;
12511;SDS011;6321;53.798;10.382;2022-11-15T09:24:06;29.60;;;16.00;;
12511;SDS011;6321;53.798;10.382;2022-11-15T09:26:32;22.27;;;14.77;;
12511;SDS011;6321;53.798;10.382;2022-11-15T09:28:57;31.80;;;16.37;;
12511;SDS011;6321;53.798;10.382;2022-11-15T09:31:23;27.93;;;16.20;;
12511;SDS011;6321;53.798;10.382;2022-11-15T09:33:50;27.70;;;16.20;;
12511;SDS011;6321;53.798;10.382;2022-11-15T09:36:16;31.17;;;16.80;;
12511;SDS011;6321;53.798;10.382;2022-11-15T09:38:42;27.00;;;16.47;;
12511;SDS011;6321;53.798;10.382;2022-11-15T09:49:03;33.30;;;15.57;;
12511;SDS011;6321;53.798;10.382;2022-11-15T09:51:36;25.20;;;15.53;;
12511;SDS011;6321;53.798;10.382;2022-11-15T09:54:15;26.93;;;16.40;;
12511;SDS011;6321;53.798;10.382;2022-11-15T09:56:43;26.33;;;14.60;;
12511;SDS011;6321;53.798;10.382;2022-11-15T09:59:22;28.30;;;15.87;;
12511;SDS011;6321;53.798;10.382;2022-11-15T10:04:33;29.60;;;14.83;;
12511;SDS011;6321;53.798;10.382;2022-11-15T10:07:06;22.97;;;14.17;;
12511;SDS011;6321;53.798;10.382;2022-11-15T10:09:39;26.67;;;16.27;;
12511;SDS011;6321;53.798;10.382;2022-11-15T10:12:08;27.63;;;15.40;;
12511;SDS011;6321;53.798;10.382;2022-11-15T10:14:34;27.07;;;16.20;;
12511;SDS011;6321;53.798;10.382;2022-11-15T10:25:21;26.07;;;14.93;;
12511;SDS011;6321;53.798;10.382;2022-11-15T10:27:52;26.80;;;14.90;;
12511;SDS011;6321;53.798;10.382;2022-11-15T10:30:18;24.73;;;14.43;;
12511;SDS011;6321;53.798;10.382;2022-11-15T10:32:45;26.07;;;14.53;;
12511;SDS011;6321;53.798;10.382;2022-11-15T10:37:43;27.17;;;15.17;;
12511;SDS011;6321;53.798;10.382;2022-11-15T10:40:17;23.80;;;14.90;;
12511;SDS011;6321;53.798;10.382;2022-11-15T10:42:43;24.17;;;14.73;;
12511;SDS011;6321;53.798;10.382;2022-11-15T10:45:26;23.83;;;14.63;;
12511;SDS011;6321;53.798;10.382;2022-11-15T10:47:52;28.00;;;14.73;;
12511;SDS011;6321;53.798;10.382;2022-11-15T10:50:28;23.67;;;14.40;;
12511;SDS011;6321;53.798;10.382;2022-11-15T10:52:54;26.17;;;14.80;;
12511;SDS011;6321;53.798;10.382;2022-11-15T10:55:24;26.73;;;14.80;;
12511;SDS011;6321;53.798;10.382;2022-11-15T10:57:52;23.47;;;14.63;;
12511;SDS011;6321;53.798;10.382;2022-11-15T11:05:38;23.67;;;14.43;;
12511;SDS011;6321;53.798;10.382;2022-11-15T11:10:37;24.67;;;15.27;;
12511;SDS011;6321;53.798;10.382;2022-11-15T11:13:13;23.23;;;15.00;;
12511;SDS011;6321;53.798;10.382;2022-11-15T11:15:39;25.60;;;14.97;;
12511;SDS011;6321;53.798;10.382;2022-11-15T11:18:07;21.73;;;14.57;;
12511;SDS011;6321;53.798;10.382;2022-11-15T11:20:38;21.73;;;13.27;;
12511;SDS011;6321;53.798;10.382;2022-11-15T11:23:24;23.60;;;15.00;;
12511;SDS011;6321;53.798;10.382;2022-11-15T11:25:58;24.90;;;15.03;;
12511;SDS011;6321;53.798;10.382;2022-11-15T11:31:13;24.20;;;13.53;;
12511;SDS011;6321;53.798;10.382;2022-11-15T11:33:46;22.57;;;13.87;;
12511;SDS011;6321;53.798;10.382;2022-11-15T11:36:27;24.30;;;14.63;;
12511;SDS011;6321;53.798;10.382;2022-11-15T11:41:51;20.33;;;12.93;;
12511;SDS011;6321;53.798;10.382;2022-11-15T11:44:32;23.43;;;14.43;;
12511;SDS011;6321;53.798;10.382;2022-11-15T11:47:00;24.63;;;14.83;;
12511;SDS011;6321;53.798;10.382;2022-11-15T11:49:30;20.73;;;13.57;;
12511;SDS011;6321;53.798;10.382;2022-11-15T11:52:02;20.40;;;13.63;;
12511;SDS011;6321;53.798;10.382;2022-11-15T11:54:34;23.80;;;13.83;;
12511;SDS011;6321;53.798;10.382;2022-11-15T11:57:03;21.57;;;14.37;;
12511;SDS011;6321;53.798;10.382;2022-11-15T11:59:48;25.00;;;14.87;;
12511;SDS011;6321;53.798;10.382;2022-11-15T12:02:21;23.80;;;13.60;;
12511;SDS011;6321;53.798;10.382;2022-11-15T12:04:51;22.10;;;14.10;;
12511;SDS011;6321;53.798;10.382;2022-11-15T12:07:23;21.80;;;13.43;;
12511;SDS011;6321;53.798;10.382;2022-11-15T12:12:23;18.00;;;12.27;;
12511;SDS011;6321;53.798;10.382;2022-11-15T12:15:39;20.07;;;13.40;;
12511;SDS011;6321;53.798;10.382;2022-11-15T12:17:39;21.47;;;13.07;;
12511;SDS011;6321;53.798;10.382;2022-11-15T12:20:13;21.50;;;13.77;;
12511;SDS011;6321;53.798;10.382;2022-11-15T12:22:48;22.53;;;12.87;;
12511;SDS011;6321;53.798;10.382;2022-11-15T12:25:25;19.43;;;13.03;;
12511;SDS011;6321;53.798;10.382;2022-11-15T12:30:20;19.50;;;14.10;;
12511;SDS011;6321;53.798;10.382;2022-11-15T12:32:51;19.97;;;13.07;;
12511;SDS011;6321;53.798;10.382;2022-11-15T12:35:35;18.63;;;13.10;;
12511;SDS011;6321;53.798;10.382;2022-11-15T12:38:02;20.17;;;12.27;;
12511;SDS011;6321;53.798;10.382;2022-11-15T12:40:29;20.67;;;13.70;;
12511;SDS011;6321;53.798;10.382;2022-11-15T12:43:03;19.97;;;13.17;;
12511;SDS011;6321;53.798;10.382;2022-11-15T12:47:57;20.17;;;13.17;;
12511;SDS011;6321;53.798;10.382;2022-11-15T12:58:40;19.47;;;13.23;;
12511;SDS011;6321;53.798;10.382;2022-11-15T13:01:07;22.87;;;13.07;;
12511;SDS011;6321;53.798;10.382;2022-11-15T13:03:33;19.37;;;12.67;;
12511;SDS011;6321;53.798;10.382;2022-11-15T13:06:00;19.33;;;12.33;;
12511;SDS011;6321;53.798;10.382;2022-11-15T13:08:37;19.03;;;13.63;;
12511;SDS011;6321;53.798;10.382;2022-11-15T13:14:34;17.00;;;12.00;;
12511;SDS011;6321;53.798;10.382;2022-11-15T13:16:56;17.47;;;12.87;;
12511;SDS011;6321;53.798;10.382;2022-11-15T13:19:23;17.40;;;11.50;;
12511;SDS011;6321;53.798;10.382;2022-11-15T13:21:50;18.73;;;12.83;;
12511;SDS011;6321;53.798;10.382;2022-11-15T13:24:37;18.33;;;11.97;;
12511;SDS011;6321;53.798;10.382;2022-11-15T13:27:14;17.73;;;11.93;;
12511;SDS011;6321;53.798;10.382;2022-11-15T13:29:42;17.90;;;11.23;;
12511;SDS011;6321;53.798;10.382;2022-11-15T13:32:15;18.20;;;11.80;;
12511;SDS011;6321;53.798;10.382;2022-11-15T13:34:45;20.10;;;12.03;;
12511;SDS011;6321;53.798;10.382;2022-11-15T13:37:33;17.33;;;11.23;;
12511;SDS011;6321;53.798;10.382;2022-11-15T13:42:43;16.80;;;10.57;;
12511;SDS011;6321;53.798;10.382;2022-11-15T13:45:12;15.87;;;10.83;;
12511;SDS011;6321;53.798;10.382;2022-11-15T13:47:39;16.30;;;10.90;;
12511;SDS011;6321;53.798;10.382;2022-11-15T13:50:05;17.43;;;11.23;;
12511;SDS011;6321;53.798;10.382;2022-11-15T13:52:32;17.17;;;10.50;;
12511;SDS011;6321;53.798;10.382;2022-11-15T13:55:00;14.93;;;10.80;;
12511;SDS011;6321;53.798;10.382;2022-11-15T13:57:40;14.13;;;10.07;;
12511;SDS011;6321;53.798;10.382;2022-11-15T14:02:53;15.43;;;10.80;;
12511;SDS011;6321;53.798;10.382;2022-11-15T14:05:25;15.83;;;10.77;;
12511;SDS011;6321;53.798;10.382;2022-11-15T14:07:56;16.27;;;11.53;;
12511;SDS011;6321;53.798;10.382;2022-11-15T14:10:27;17.37;;;10.90;;
12511;SDS011;6321;53.798;10.382;2022-11-15T14:12:53;15.27;;;9.97;;
12511;SDS011;6321;53.798;10.382;2022-11-15T14:15:32;16.07;;;10.53;;
12511;SDS011;6321;53.798;10.382;2022-11-15T14:17:59;14.63;;;10.20;;
12511;SDS011;6321;53.798;10.382;2022-11-15T14:22:52;16.77;;;10.97;;
12511;SDS011;6321;53.798;10.382;2022-11-15T14:25:22;16.77;;;10.67;;
12511;SDS011;6321;53.798;10.382;2022-11-15T14:30:53;14.13;;;10.40;;
12511;SDS011;6321;53.798;10.382;2022-11-15T14:33:21;17.77;;;11.00;;
12511;SDS011;6321;53.798;10.382;2022-11-15T14:35:47;17.27;;;10.53;;
12511;SDS011;6321;53.798;10.382;2022-11-15T14:38:13;15.67;;;10.63;;
12511;SDS011;6321;53.798;10.382;2022-11-15T14:40:41;17.87;;;10.77;;
12511;SDS011;6321;53.798;10.382;2022-11-15T14:43:08;16.67;;;10.53;;
12511;SDS011;6321;53.798;10.382;2022-11-15T14:45:35;13.53;;;9.87;;
12511;SDS011;6321;53.798;10.382;2022-11-15T14:48:01;15.77;;;10.57;;
12511;SDS011;6321;53.798;10.382;2022-11-15T14:50:27;13.03;;;9.87;;
12511;SDS011;6321;53.798;10.382;2022-11-15T14:52:53;16.17;;;10.90;;
12511;SDS011;6321;53.798;10.382;2022-11-15T14:55:26;15.13;;;10.60;;
12511;SDS011;6321;53.798;10.382;2022-11-15T14:57:56;15.83;;;9.73;;
12511;SDS011;6321;53.798;10.382;2022-11-15T15:00:22;16.87;;;10.57;;
12511;SDS011;6321;53.798;10.382;2022-11-15T15:02:49;17.27;;;10.63;;
12511;SDS011;6321;53.798;10.382;2022-11-15T15:05:17;14.77;;;10.27;;
12511;SDS011;6321;53.798;10.382;2022-11-15T15:07:43;15.33;;;10.93;;
12511;SDS011;6321;53.798;10.382;2022-11-15T15:10:09;14.27;;;10.17;;
12511;SDS011;6321;53.798;10.382;2022-11-15T15:12:35;16.27;;;10.23;;
12511;SDS011;6321;53.798;10.382;2022-11-15T15:15:01;15.50;;;9.90;;
12511;SDS011;6321;53.798;10.382;2022-11-15T15:17:27;15.93;;;10.83;;
12511;SDS011;6321;53.798;10.382;2022-11-15T15:19:53;17.77;;;10.87;;
12511;SDS011;6321;53.798;10.382;2022-11-15T15:22:19;18.93;;;10.20;;
12511;SDS011;6321;53.798;10.382;2022-11-15T15:24:48;13.83;;;9.90;;
12511;SDS011;6321;53.798;10.382;2022-11-15T15:27:14;14.60;;;9.77;;
12511;SDS011;6321;53.798;10.382;2022-11-15T15:29:40;15.47;;;10.50;;
12511;SDS011;6321;53.798;10.382;2022-11-15T15:32:06;14.63;;;9.10;;
12511;SDS011;6321;53.798;10.382;2022-11-15T15:34:32;15.10;;;10.53;;
12511;SDS011;6321;53.798;10.382;2022-11-15T15:39:44;16.47;;;10.10;;
12511;SDS011;6321;53.798;10.382;2022-11-15T15:42:09;15.60;;;10.60;;
12511;SDS011;6321;53.798;10.382;2022-11-15T15:44:35;13.50;;;9.43;;
12511;SDS011;6321;53.798;10.382;2022-11-15T15:47:01;16.80;;;10.07;;
12511;SDS011;6321;53.798;10.382;2022-11-15T15:49:27;15.97;;;10.30;;
12511;SDS011;6321;53.798;10.382;2022-11-15T15:51:53;16.83;;;10.13;;
12511;SDS011;6321;53.798;10.382;2022-11-15T15:54:19;15.63;;;10.77;;
12511;SDS011;6321;53.798;10.382;2022-11-15T15:56:45;14.93;;;9.90;;
12511;SDS011;6321;53.798;10.382;2022-11-15T15:59:11;16.03;;;10.77;;
12511;SDS011;6321;53.798;10.382;2022-11-15T16:01:37;18.13;;;10.23;;